Time;durP1;ratioP1;P1;durP2;ratioP2;P2;SDS_P1;SDS_P2;PMS_P1;PMS_P2;Temp;Humidity;BMP_temperature;BMP_pressure;BME280_temperature;BME280_humidity;BME280_pressure;Samples;Min_cycle;Max_cycle;Signal;HPM_P1;HPM_P2
2023/10/24 18:35:23;;;;;;;8.75;7.93;;;12.00;99.90;;;;;;5083428;27;20579;-74
2023/10/24 18:37:50;;;;;;;12.00;10.95;;;12.00;99.90;;;;;;5068706;28;20304;-72
2023/10/24 18:40:19;;;;;;;9.70;8.90;;;12.10;99.90;;;;;;5072241;28;20289;-73
2023/10/24 18:42:49;;;;;;;12.00;10.90;;;12.30;99.90;;;;;;5076583;28;20270;-70
2023/10/24 18:45:17;;;;;;;9.25;8.55;;;12.30;99.90;;;;;;5083591;28;20298;-71
2023/10/24 18:47:44;;;;;;;10.80;9.80;;;12.40;99.90;;;;;;5085319;28;20237;-72
2023/10/24 18:50:11;;;;;;;10.07;9.15;;;12.40;99.90;;;;;;5082274;28;20288;-71
2023/10/24 18:52:40;;;;;;;12.20;11.00;;;12.50;99.90;;;;;;5088862;28;20205;-71
2023/10/24 18:55:09;;;;;;;12.65;11.45;;;12.50;99.90;;;;;;5077213;28;20226;-70
2023/10/24 18:57:36;;;;;;;11.70;10.70;;;12.40;99.90;;;;;;5078055;28;20238;-70
2023/10/24 19:00:05;;;;;;;14.07;12.70;;;12.40;99.90;;;;;;5084742;28;20221;-70
2023/10/24 19:02:32;;;;;;;12.45;11.45;;;12.30;99.90;;;;;;5081938;28;20604;-71
2023/10/24 19:05:00;;;;;;;12.57;11.38;;;12.30;99.90;;;;;;5073691;28;20225;-72
2023/10/24 19:07:27;;;;;;;14.60;13.20;;;12.30;99.90;;;;;;5082765;28;20567;-72
2023/10/24 19:09:56;;;;;;;12.82;11.63;;;12.30;99.90;;;;;;5081161;28;20692;-73
2023/10/24 19:12:23;;;;;;;15.60;13.98;;;12.20;99.90;;;;;;5077020;28;20323;-73
2023/10/24 19:14:52;;;;;;;14.13;12.82;;;12.20;99.90;;;;;;5080615;28;20210;-71
2023/10/24 19:17:19;;;;;;;13.38;12.10;;;12.10;99.90;;;;;;5079829;28;20657;-72
2023/10/24 19:19:46;;;;;;;14.52;13.05;;;12.10;99.90;;;;;;5073763;28;20203;-73
2023/10/24 19:22:15;;;;;;;18.90;17.08;;;12.10;99.90;;;;;;5082339;28;20273;-72
2023/10/24 19:24:42;;;;;;;17.65;15.88;;;12.00;99.90;;;;;;5075751;28;20242;-73
2023/10/24 19:27:11;;;;;;;17.67;15.85;;;11.90;99.90;;;;;;5074756;28;20218;-71
2023/10/24 19:29:38;;;;;;;17.90;16.10;;;11.90;99.90;;;;;;5080957;28;20205;-72
2023/10/24 19:32:06;;;;;;;17.48;15.68;;;11.80;99.90;;;;;;5074185;28;20233;-71
2023/10/24 19:34:34;;;;;;;19.48;17.58;;;11.80;99.90;;;;;;5081936;28;20457;-73
2023/10/24 19:37:03;;;;;;;18.58;16.77;;;11.70;99.90;;;;;;5077233;28;20229;-70
2023/10/24 19:39:32;;;;;;;22.30;19.92;;;11.70;99.90;;;;;;5075122;28;20209;-71
2023/10/24 19:42:00;;;;;;;20.48;18.58;;;11.70;99.90;;;;;;5078951;28;20238;-69
2023/10/24 19:44:29;;;;;;;22.20;20.10;;;11.70;99.90;;;;;;5085107;28;20237;-73
2023/10/24 19:47:01;;;;;;;19.95;17.77;;;11.70;99.90;;;;;;5062719;28;20226;-71
2023/10/24 19:49:32;;;;;;;19.85;17.85;;;11.70;99.90;;;;;;5062786;28;20208;-71
2023/10/24 19:52:02;;;;;;;20.25;18.10;;;11.70;99.90;;;;;;5061489;28;20205;-70
2023/10/24 19:54:33;;;;;;;20.30;18.40;;;11.70;99.90;;;;;;5061093;28;20311;-71
2023/10/24 19:57:01;;;;;;;21.88;19.75;;;11.80;99.90;;;;;;5062713;28;20308;-71
2023/10/24 19:59:30;;;;;;;21.88;19.58;;;11.70;99.90;;;;;;5063870;28;20244;-72
2023/10/24 20:01:58;;;;;;;20.90;18.90;;;11.70;99.90;;;;;;5064677;28;20206;-72
2023/10/24 20:04:26;;;;;;;22.00;19.70;;;11.60;99.90;;;;;;5060315;28;20362;-73
2023/10/24 20:06:55;;;;;;;21.77;19.25;;;11.60;99.90;;;;;;5062084;28;20309;-74
2023/10/24 20:09:23;;;;;;;20.10;17.90;;;11.60;99.90;;;;;;5060844;28;20202;-75
2023/10/24 20:11:50;;;;;;;16.70;15.00;;;11.60;99.90;;;;;;5063706;28;20304;-74
2023/10/24 20:14:18;;;;;;;21.85;19.20;;;11.50;99.90;;;;;;5062607;28;20301;-74
2023/10/24 20:16:48;;;;;;;18.88;15.30;;;11.50;99.90;;;;;;5067950;28;20839;-73
2023/10/24 20:19:16;;;;;;;17.85;16.25;;;11.50;99.90;;;;;;5064960;28;20204;-75
2023/10/24 20:21:44;;;;;;;19.38;16.25;;;11.50;99.90;;;;;;5065459;28;20203;-76
2023/10/24 20:24:12;;;;;;;18.95;17.20;;;11.50;99.90;;;;;;5066509;28;20289;-73
2023/10/24 20:26:41;;;;;;;16.40;14.70;;;11.50;99.90;;;;;;5064597;28;20308;-73
2023/10/24 20:29:08;;;;;;;17.52;15.27;;;11.50;99.90;;;;;;5065954;28;20249;-77
2023/10/24 20:31:35;;;;;;;16.25;14.65;;;11.50;99.90;;;;;;5065201;28;20248;-74
2023/10/24 20:34:03;;;;;;;15.48;14.02;;;11.40;99.90;;;;;;5060512;28;20222;-73
2023/10/24 20:36:30;;;;;;;15.13;13.52;;;11.40;99.90;;;;;;5065289;28;20205;-73
2023/10/24 20:38:57;;;;;;;14.38;12.70;;;11.40;99.90;;;;;;5060093;28;20289;-73
2023/10/24 20:41:24;;;;;;;14.65;13.35;;;11.40;99.90;;;;;;5066069;28;20293;-72
2023/10/24 20:43:51;;;;;;;15.02;12.60;;;11.40;99.90;;;;;;5067237;28;20198;-73
2023/10/24 20:46:18;;;;;;;13.77;11.05;;;11.40;99.90;;;;;;5064151;28;20329;-72
2023/10/24 20:48:45;;;;;;;12.00;10.82;;;11.40;99.90;;;;;;5065369;28;20789;-73
2023/10/24 20:51:15;;;;;;;13.20;11.90;;;11.40;99.90;;;;;;5057372;28;20285;-73
2023/10/24 20:53:42;;;;;;;12.57;11.38;;;11.40;99.90;;;;;;5062634;28;20202;-73
2023/10/24 20:56:09;;;;;;;16.05;14.45;;;11.40;99.90;;;;;;5067865;28;20202;-73
2023/10/24 20:58:36;;;;;;;14.45;13.05;;;11.30;99.90;;;;;;5065254;28;20253;-74
2023/10/24 21:01:03;;;;;;;13.70;12.40;;;11.30;99.90;;;;;;5062178;28;20284;-74
2023/10/24 21:03:31;;;;;;;14.90;13.48;;;11.30;99.90;;;;;;5074809;28;20232;-73
2023/10/24 21:05:59;;;;;;;14.60;13.20;;;11.20;99.90;;;;;;5070751;28;20241;-72
2023/10/24 21:08:27;;;;;;;16.30;14.60;;;11.30;99.90;;;;;;5072876;28;20222;-72
2023/10/24 21:10:57;;;;;;;17.27;15.48;;;11.20;99.90;;;;;;5066722;28;20217;-74
2023/10/24 21:13:24;;;;;;;14.13;12.63;;;11.20;99.90;;;;;;5059363;28;20229;-73
2023/10/24 21:15:56;;;;;;;18.25;16.35;;;11.20;99.90;;;;;;5063511;28;20309;-74
2023/10/24 21:18:23;;;;;;;22.67;15.68;;;11.20;99.90;;;;;;5066157;28;20228;-74
2023/10/24 21:20:50;;;;;;;19.98;16.02;;;11.10;99.90;;;;;;5055082;28;20206;-74
2023/10/24 21:23:17;;;;;;;19.27;16.85;;;11.10;99.90;;;;;;5066806;28;20287;-73
2023/10/24 21:25:46;;;;;;;18.98;16.55;;;11.10;99.90;;;;;;5056339;28;20286;-73
2023/10/24 21:28:13;;;;;;;21.75;16.60;;;11.10;99.90;;;;;;5062336;28;20236;-72
2023/10/24 21:30:40;;;;;;;18.63;16.73;;;11.10;99.90;;;;;;5058101;28;20214;-75
2023/10/24 21:33:08;;;;;;;23.00;17.98;;;11.10;99.90;;;;;;5056139;28;20208;-73
2023/10/24 21:35:38;;;;;;;23.02;18.13;;;11.10;99.90;;;;;;5064775;28;20997;-74
2023/10/24 21:38:07;;;;;;;21.73;19.25;;;11.10;99.90;;;;;;5063666;28;20252;-73
2023/10/24 21:40:34;;;;;;;27.27;19.05;;;11.10;99.90;;;;;;5059141;28;20207;-73
2023/10/24 21:43:03;;;;;;;21.10;17.85;;;11.00;99.90;;;;;;5064216;28;20210;-73
2023/10/24 21:45:30;;;;;;;24.23;20.35;;;11.00;99.90;;;;;;5068322;28;20309;-74
2023/10/24 21:47:57;;;;;;;20.02;17.85;;;11.00;99.90;;;;;;5066901;28;20265;-74
2023/10/24 21:50:24;;;;;;;25.70;21.05;;;11.00;99.90;;;;;;5061831;28;20203;-72
2023/10/24 21:52:51;;;;;;;29.60;21.02;;;10.90;99.90;;;;;;5058929;28;20232;-74
2023/10/24 21:55:18;;;;;;;27.27;21.92;;;10.80;99.90;;;;;;5066020;28;20213;-74
2023/10/24 21:57:45;;;;;;;24.67;20.40;;;10.70;99.90;;;;;;5060175;28;20588;-74
2023/10/24 22:00:16;;;;;;;26.80;21.90;;;10.70;99.90;;;;;;5066069;28;20212;-74
2023/10/24 22:02:43;;;;;;;24.55;21.52;;;10.70;99.90;;;;;;5065503;28;20228;-74
2023/10/24 22:05:10;;;;;;;26.20;23.27;;;10.60;99.90;;;;;;5066264;28;20211;-74
2023/10/24 22:07:37;;;;;;;32.20;24.90;;;10.60;99.90;;;;;;5066004;28;20307;-74
2023/10/24 22:10:06;;;;;;;33.58;25.50;;;10.50;99.90;;;;;;5060985;28;20239;-74
2023/10/24 22:12:33;;;;;;;34.00;27.02;;;10.50;99.90;;;;;;5066931;28;20285;-74
2023/10/24 22:15:00;;;;;;;25.00;22.33;;;10.40;99.90;;;;;;5063262;28;20230;-74
2023/10/24 22:17:28;;;;;;;25.67;22.33;;;10.50;99.90;;;;;;5068267;28;20299;-74
2023/10/24 22:19:55;;;;;;;30.52;23.45;;;10.50;99.90;;;;;;5061558;28;20213;-73
2023/10/24 22:22:21;;;;;;;26.67;22.30;;;10.40;99.90;;;;;;5063525;28;20195;-74
2023/10/24 22:24:48;;;;;;;25.95;22.17;;;10.40;99.90;;;;;;5066685;28;20223;-73
2023/10/24 22:27:15;;;;;;;42.35;27.15;;;10.50;99.90;;;;;;5065580;28;20219;-73
2023/10/24 22:29:42;;;;;;;38.75;29.67;;;10.40;99.90;;;;;;5067655;28;20200;-73
2023/10/24 22:32:09;;;;;;;39.20;28.90;;;10.40;99.90;;;;;;5065984;28;20235;-74
2023/10/24 22:34:38;;;;;;;30.15;24.08;;;10.30;99.90;;;;;;5069836;28;20254;-74
2023/10/24 22:37:05;;;;;;;29.65;22.95;;;10.30;99.90;;;;;;5065019;28;20228;-73
2023/10/24 22:39:32;;;;;;;38.50;28.92;;;10.40;99.90;;;;;;5064043;28;20210;-74
2023/10/24 22:41:59;;;;;;;43.40;30.50;;;10.30;99.90;;;;;;5069195;28;20241;-73
2023/10/24 22:44:26;;;;;;;35.50;28.25;;;10.30;99.90;;;;;;5070513;28;20284;-74
2023/10/24 22:46:53;;;;;;;29.23;25.00;;;10.30;99.90;;;;;;5060955;28;20328;-73
2023/10/24 22:49:20;;;;;;;35.25;26.45;;;10.30;99.90;;;;;;5058800;28;20224;-72
2023/10/24 22:51:48;;;;;;;30.60;24.83;;;10.30;99.90;;;;;;5063138;28;20286;-73
2023/10/24 22:54:15;;;;;;;38.15;28.00;;;10.30;99.90;;;;;;5067555;28;20296;-73
2023/10/24 22:56:42;;;;;;;34.42;25.60;;;10.30;99.90;;;;;;5064822;28;20222;-73
2023/10/24 22:59:09;;;;;;;40.50;28.95;;;10.40;99.90;;;;;;5066438;28;20283;-73
2023/10/24 23:01:35;;;;;;;38.85;28.45;;;10.40;99.90;;;;;;5066697;28;20641;-73
2023/10/24 23:04:02;;;;;;;32.95;27.67;;;10.40;99.90;;;;;;5061370;28;20201;-73
2023/10/24 23:06:29;;;;;;;31.98;28.45;;;10.40;99.90;;;;;;5068282;28;20235;-72
2023/10/24 23:08:58;;;;;;;34.35;25.70;;;10.40;99.90;;;;;;5064532;28;20209;-73
2023/10/24 23:11:25;;;;;;;31.65;25.15;;;10.40;99.90;;;;;;5061731;28;20191;-73
2023/10/24 23:13:52;;;;;;;32.60;26.63;;;10.50;99.90;;;;;;5066735;28;20197;-73
2023/10/24 23:16:19;;;;;;;37.22;28.33;;;10.50;99.90;;;;;;5067565;28;20270;-74
2023/10/24 23:18:46;;;;;;;28.33;24.83;;;10.60;99.90;;;;;;5067443;28;20703;-74
2023/10/24 23:21:13;;;;;;;34.30;26.50;;;10.50;99.90;;;;;;5064618;28;20242;-74
2023/10/24 23:23:39;;;;;;;32.20;25.42;;;10.50;99.90;;;;;;5072239;28;20279;-73
2023/10/24 23:26:08;;;;;;;35.03;27.08;;;10.50;99.90;;;;;;5066829;28;20301;-73
2023/10/24 23:28:35;;;;;;;34.08;27.23;;;10.50;99.90;;;;;;5066538;28;20872;-73
2023/10/24 23:31:02;;;;;;;43.67;29.58;;;10.40;99.90;;;;;;5068389;28;20282;-74
2023/10/24 23:33:28;;;;;;;33.50;24.52;;;10.40;99.90;;;;;;5066572;28;20304;-72
2023/10/24 23:35:55;;;;;;;31.23;27.30;;;10.40;99.90;;;;;;5070487;28;20311;-73
2023/10/24 23:38:22;;;;;;;29.52;24.05;;;10.50;99.90;;;;;;5063432;28;20308;-73
2023/10/24 23:40:49;;;;;;;29.85;24.90;;;10.40;99.90;;;;;;5067112;28;20234;-73
2023/10/24 23:43:17;;;;;;;26.20;22.67;;;10.40;99.90;;;;;;5064664;28;20216;-73
2023/10/24 23:45:44;;;;;;;36.72;28.30;;;10.50;99.90;;;;;;5065094;28;20283;-72
2023/10/24 23:48:11;;;;;;;30.60;25.63;;;10.50;99.90;;;;;;5076218;28;20227;-73
2023/10/24 23:50:38;;;;;;;37.85;29.58;;;10.40;99.90;;;;;;5077628;28;20264;-73
2023/10/24 23:53:05;;;;;;;31.13;25.38;;;10.40;99.90;;;;;;5087055;28;20722;-74
2023/10/24 23:55:35;;;;;;;33.13;26.48;;;10.40;99.90;;;;;;5071872;28;20216;-73
2023/10/24 23:58:02;;;;;;;35.70;26.83;;;10.40;99.90;;;;;;5070546;28;20216;-73
